Afton, California
Current Conditions -  °F | °C
As of 1:53 PM on Sunday 23 Nov 2014 (Local Time) from KOVE Reporting Station
Clear Clear  
Wind Chill: 59°   Ceiling: Unl
Heat Index: 59°   Visibility: 10mi
Dew Point: 42°   Wind: 3mph
Humidity: 53%   Direction: NA
Pressure: 30.27"   Gusts: NA
Location:  39.4608°N, 121.937°W
Report Text: KOVE 232153Z AUTO VRB03KT 10SM CLR 15/06 A3027 RMK AO2 SLP254 T01500056
Loading
Personal Weather Stations






























Interactive Weather Map New forecast layout! Learn more

10-Day Weather Forecast

Advertisements
Track Severe Weather on mobile